createdAt,value
2018-11-13T00:01:10.783Z,101066.84
2018-11-13T00:03:39.285Z,101067.65
2018-11-13T00:06:07.840Z,101068.97
2018-11-13T00:08:36.423Z,101076.53
2018-11-13T00:11:05.102Z,101096.95
2018-11-13T00:13:33.628Z,101097.61
2018-11-13T00:16:02.240Z,101096.14
2018-11-13T00:18:30.764Z,101105.69
2018-11-13T00:20:59.310Z,101105.83
2018-11-13T00:23:27.899Z,101107.48
2018-11-13T00:25:56.510Z,101096.78
2018-11-13T00:28:25.229Z,101092.34
2018-11-13T00:30:53.802Z,101095.81
2018-11-13T00:33:22.389Z,101091.70
2018-11-13T00:35:51.047Z,101078.70
2018-11-13T00:38:19.576Z,101080.67
2018-11-13T00:40:48.098Z,101084.94
2018-11-13T00:43:16.691Z,101081.14
2018-11-13T00:45:45.441Z,101082.30
2018-11-13T00:48:13.793Z,101082.00
2018-11-13T00:50:43.121Z,101083.30
2018-11-13T00:53:11.570Z,101084.27
2018-11-13T00:55:40.153Z,101082.95
2018-11-13T00:58:08.733Z,101084.13
2018-11-13T01:00:38.139Z,101083.31
2018-11-13T01:03:06.865Z,101074.56
2018-11-13T01:05:35.432Z,101075.05
2018-11-13T01:08:03.977Z,101075.55
2018-11-13T01:10:32.538Z,101091.05
2018-11-13T01:13:01.702Z,101081.48
2018-11-13T01:15:30.450Z,101073.92
2018-11-13T01:17:59.690Z,101075.56
2018-11-13T01:20:28.214Z,101074.09
2018-11-13T01:22:57.541Z,101068.98
2018-11-13T01:25:26.114Z,101063.72
2018-11-13T01:27:54.642Z,101073.27
2018-11-13T01:30:26.078Z,101081.16
2018-11-13T01:32:54.577Z,101093.83
2018-11-13T01:35:23.119Z,101086.74
2018-11-13T01:37:51.665Z,101089.06
2018-11-13T01:40:21.317Z,101087.89
2018-11-13T01:42:50.526Z,101084.45
2018-11-13T01:45:19.889Z,101077.21
2018-11-13T01:47:48.491Z,101078.03
2018-11-13T01:50:18.717Z,101093.82
2018-11-13T01:52:47.330Z,101103.22
2018-11-13T01:55:16.466Z,101101.08
2018-11-13T01:57:45.161Z,101100.09
2018-11-13T02:00:20.045Z,101116.38
2018-11-13T02:02:49.836Z,101112.92
2018-11-13T02:05:19.860Z,101109.45
2018-11-13T02:07:48.677Z,101109.62
2018-11-13T02:10:18.298Z,101106.84
2018-11-13T02:12:47.341Z,101104.53
2018-11-13T02:15:16.117Z,101101.05
2018-11-13T02:17:44.825Z,101098.77
2018-11-13T02:20:16.094Z,101089.53
2018-11-13T02:22:44.759Z,101082.64
2018-11-13T02:25:15.816Z,101069.16
2018-11-13T02:27:44.951Z,101076.22
2018-11-13T02:30:16.435Z,101081.15
2018-11-13T02:32:45.421Z,101072.27
2018-11-13T02:35:15.337Z,101070.96
2018-11-13T02:37:44.370Z,101061.58
2018-11-13T02:40:13.267Z,101055.81
2018-11-13T02:42:42.744Z,101057.13
2018-11-13T02:45:14.666Z,101052.20
2018-11-13T02:47:43.362Z,101058.91
2018-11-13T02:50:18.442Z,101059.23
2018-11-13T02:52:46.966Z,101069.89
2018-11-13T02:55:15.692Z,101073.89
2018-11-13T02:57:45.624Z,101083.45
2018-11-13T03:00:16.046Z,101075.88
2018-11-13T03:02:44.724Z,101080.16
2018-11-13T03:05:14.530Z,101090.38
2018-11-13T03:07:43.367Z,101099.58
2018-11-13T03:10:13.714Z,101084.93
2018-11-13T03:12:42.379Z,101073.40
2018-11-13T03:15:12.649Z,101074.56
2018-11-13T03:17:41.258Z,101073.75
2018-11-13T03:20:11.979Z,101064.02
2018-11-13T03:22:41.102Z,101062.38
2018-11-13T03:25:12.110Z,101067.47
2018-11-13T03:27:40.637Z,101051.02
2018-11-13T03:30:18.144Z,101052.34
2018-11-13T03:32:46.815Z,101063.39
2018-11-13T03:35:15.357Z,101073.91
2018-11-13T03:37:44.268Z,101072.09
2018-11-13T03:40:13.487Z,101069.95
2018-11-13T03:42:42.610Z,101074.37
2018-11-13T03:45:12.131Z,101075.16
2018-11-13T03:47:40.659Z,101080.77
2018-11-13T03:50:11.778Z,101082.25
2018-11-13T03:52:40.362Z,101080.10
2018-11-13T03:55:09.772Z,101084.77
2018-11-13T03:57:39.361Z,101091.02
2018-11-13T04:00:11.042Z,101084.77
2018-11-13T04:02:40.141Z,101083.43
2018-11-13T04:05:10.208Z,101072.42
2018-11-13T04:07:42.139Z,101077.52
2018-11-13T04:10:12.247Z,101082.45
2018-11-13T04:12:41.227Z,101084.23
2018-11-13T04:15:11.662Z,101092.77
2018-11-13T04:17:40.330Z,101089.70
2018-11-13T04:20:10.581Z,101096.88
2018-11-13T04:22:39.358Z,101094.61
2018-11-13T04:25:08.430Z,101089.68
2018-11-13T04:27:37.009Z,101081.65
2018-11-13T04:30:06.226Z,101087.87
2018-11-13T04:32:34.800Z,101075.53
2018-11-13T04:35:03.387Z,101070.63
2018-11-13T04:37:32.084Z,101068.32
2018-11-13T04:40:00.636Z,101076.20
2018-11-13T04:42:29.267Z,101085.75
2018-11-13T04:44:57.898Z,101080.31
2018-11-13T04:47:26.466Z,101085.25
2018-11-13T04:49:55.005Z,101085.75
2018-11-13T04:52:23.545Z,101083.09
2018-11-13T04:54:52.152Z,101092.02
2018-11-13T04:57:20.794Z,101095.30
2018-11-13T04:59:49.310Z,101086.73
2018-11-13T05:02:17.880Z,101080.15
2018-11-13T05:04:46.450Z,101090.14
2018-11-13T05:07:14.989Z,101091.83
2018-11-13T05:09:44.283Z,101098.39
2018-11-13T05:12:12.858Z,101096.72
2018-11-13T05:14:41.514Z,101101.30
2018-11-13T05:17:10.091Z,101109.84
2018-11-13T05:19:38.677Z,101109.37
2018-11-13T05:22:07.466Z,101107.86
2018-11-13T05:24:36.096Z,101096.86
2018-11-13T05:27:04.869Z,101103.11
2018-11-13T05:29:33.447Z,101108.05
2018-11-13T05:32:01.934Z,101103.12
2018-11-13T05:34:30.478Z,101112.66
2018-11-13T05:36:59.026Z,101121.39
2018-11-13T05:39:27.565Z,101125.23
2018-11-13T05:41:56.104Z,101125.92
2018-11-13T05:44:24.692Z,101118.48
2018-11-13T05:46:53.799Z,101120.32
2018-11-13T05:49:22.350Z,101107.31
2018-11-13T05:51:51.500Z,101112.77
2018-11-13T05:54:20.208Z,101119.50
2018-11-13T05:56:48.718Z,101112.44
2018-11-13T05:59:17.262Z,101110.80
2018-11-13T06:01:46.564Z,101116.22
2018-11-13T06:04:15.073Z,101117.05
2018-11-13T06:06:43.655Z,101108.15
2018-11-13T06:09:12.679Z,101112.75
2018-11-13T06:11:41.307Z,101113.09
2018-11-13T06:14:09.893Z,101131.50
2018-11-13T06:16:38.410Z,101136.78
2018-11-13T06:19:07.206Z,101128.91
2018-11-13T06:21:36.568Z,101128.40
2018-11-13T06:24:05.629Z,101130.36
2018-11-13T06:26:35.437Z,101124.11
2018-11-13T06:29:03.979Z,101124.46
2018-11-13T06:31:32.654Z,101132.35
2018-11-13T06:34:01.234Z,101140.73
2018-11-13T06:36:29.782Z,101138.44
2018-11-13T06:38:58.455Z,101138.60
2018-11-13T06:41:27.064Z,101143.70
2018-11-13T06:43:55.885Z,101139.25
2018-11-13T06:46:24.461Z,101150.60
2018-11-13T06:48:53.104Z,101148.30
2018-11-13T06:51:22.210Z,101152.10
2018-11-13T06:54:02.218Z,101147.67
2018-11-13T06:56:30.807Z,101160.35
2018-11-13T06:58:59.323Z,101163.13
2018-11-13T07:01:27.854Z,101166.62
2018-11-13T07:03:56.390Z,101176.17
2018-11-13T07:06:24.914Z,101176.47
2018-11-13T07:08:53.442Z,101178.62
2018-11-13T07:11:22.978Z,101181.11
2018-11-13T07:13:52.126Z,101177.64
2018-11-13T07:16:20.635Z,101176.83
2018-11-13T07:18:49.183Z,101179.46
2018-11-13T07:21:18.135Z,101189.17
2018-11-13T07:23:46.862Z,101184.05
2018-11-13T07:26:15.363Z,101190.66
2018-11-13T07:28:44.038Z,101187.50
2018-11-13T07:31:13.304Z,101194.09
2018-11-13T07:33:42.362Z,101198.21
2018-11-13T07:36:11.015Z,101201.20
2018-11-13T07:38:39.575Z,101202.00
2018-11-13T07:41:08.208Z,101201.67
2018-11-13T07:43:36.731Z,101202.81
2018-11-13T07:46:05.594Z,101202.00
2018-11-13T07:48:34.099Z,101209.58
2018-11-13T07:51:02.630Z,101205.44
2018-11-13T07:53:31.232Z,101215.01
2018-11-13T07:55:59.827Z,101208.41
2018-11-13T07:58:28.424Z,101210.53
2018-11-13T08:00:57.125Z,101210.53
2018-11-13T08:03:38.626Z,101210.86
2018-11-13T08:06:07.551Z,101214.33
2018-11-13T08:08:36.120Z,101217.95
2018-11-13T08:11:05.636Z,101215.80
2018-11-13T08:13:34.876Z,101223.05
2018-11-13T08:16:03.363Z,101232.75
2018-11-13T08:18:32.932Z,101225.80
2018-11-13T08:21:01.666Z,101223.34
2018-11-13T08:23:30.966Z,101226.64
2018-11-13T08:26:00.112Z,101225.28
2018-11-13T08:28:28.904Z,101222.63
2018-11-13T08:30:57.420Z,101224.89
2018-11-13T08:33:25.932Z,101229.49
2018-11-13T08:35:54.506Z,101230.59
2018-11-13T08:38:23.087Z,101244.20
2018-11-13T08:40:51.682Z,101248.83
2018-11-13T08:43:20.921Z,101253.80
2018-11-13T08:45:49.500Z,101261.06
2018-11-13T08:48:18.108Z,101258.91
2018-11-13T08:50:46.768Z,101263.55
2018-11-13T08:53:15.878Z,101265.02
2018-11-13T08:55:44.417Z,101267.30
2018-11-13T08:58:13.426Z,101270.74
2018-11-13T09:00:41.996Z,101260.91
2018-11-13T09:03:11.129Z,101272.59
2018-11-13T09:05:39.658Z,101277.20
2018-11-13T09:08:08.178Z,101282.66
2018-11-13T09:10:38.616Z,101288.95
2018-11-13T09:13:07.355Z,101279.67
2018-11-13T09:15:35.894Z,101282.62
2018-11-13T09:18:04.429Z,101281.56
2018-11-13T09:20:33.040Z,101281.14
2018-11-13T09:23:01.673Z,101275.74
2018-11-13T09:25:30.199Z,101283.56
2018-11-13T09:27:58.764Z,101276.35
2018-11-13T09:30:27.463Z,101272.48
2018-11-13T09:32:55.963Z,101264.98
2018-11-13T09:35:24.570Z,101276.32
2018-11-13T09:37:53.156Z,101280.41
2018-11-13T09:40:21.976Z,101283.99
2018-11-13T09:42:51.846Z,101265.40
2018-11-13T09:45:20.525Z,101267.84
2018-11-13T09:47:49.105Z,101269.27
2018-11-13T09:50:19.044Z,101278.48
2018-11-13T09:52:48.856Z,101265.30
2018-11-13T09:55:18.588Z,101284.98
2018-11-13T09:57:47.854Z,101297.70
2018-11-13T10:00:20.747Z,101297.13
2018-11-13T10:02:55.116Z,101302.64
2018-11-13T10:05:23.492Z,101309.51
2018-11-13T10:07:52.631Z,101315.83
2018-11-13T10:10:21.185Z,101307.63
2018-11-13T10:12:49.754Z,101314.21
2018-11-13T10:15:20.150Z,101319.03
2018-11-13T10:17:48.755Z,101318.21
2018-11-13T10:20:17.880Z,101319.47
2018-11-13T10:22:49.715Z,101321.33
2018-11-13T10:25:19.006Z,101330.69
2018-11-13T10:27:47.579Z,101329.55
2018-11-13T10:30:17.855Z,101327.45
2018-11-13T10:32:46.885Z,101338.03
2018-11-13T10:35:17.637Z,101324.56
2018-11-13T10:37:47.462Z,101333.07
2018-11-13T10:40:17.875Z,101325.11
2018-11-13T10:42:47.063Z,101332.04
2018-11-13T10:45:17.198Z,101326.83
2018-11-13T10:47:46.879Z,101327.56
2018-11-13T10:50:17.238Z,101328.14
2018-11-13T10:52:45.719Z,101352.78
2018-11-13T10:55:14.395Z,101345.79
2018-11-13T10:57:43.446Z,101335.92
2018-11-13T11:00:19.336Z,101337.89
2018-11-13T11:03:57.088Z,101335.40
2018-11-13T11:06:25.681Z,101340.08
2018-11-13T11:08:54.204Z,101337.92
2018-11-13T11:11:22.822Z,101350.36
2018-11-13T11:13:51.543Z,101344.23
2018-11-13T11:16:20.791Z,101347.02
2018-11-13T11:18:49.330Z,101348.80
2018-11-13T11:21:18.055Z,101343.34
2018-11-13T11:23:46.733Z,101347.29
2018-11-13T11:26:15.962Z,101347.47
2018-11-13T11:28:44.543Z,101351.87
2018-11-13T11:31:13.128Z,101354.67
2018-11-13T11:33:42.635Z,101353.06
2018-11-13T11:36:11.213Z,101364.53
2018-11-13T11:38:39.834Z,101366.21
2018-11-13T11:41:08.342Z,101368.48
2018-11-13T11:43:36.962Z,101364.20
2018-11-13T11:46:05.898Z,101364.39
2018-11-13T11:48:34.470Z,101366.21
2018-11-13T11:51:02.986Z,101370.58
2018-11-13T11:53:31.670Z,101365.46
2018-11-13T11:56:01.254Z,101381.79
2018-11-13T11:58:29.871Z,101389.93
2018-11-13T12:00:58.468Z,101389.73
2018-11-13T12:03:27.044Z,101393.94
2018-11-13T12:05:55.611Z,101393.56
2018-11-13T12:08:24.164Z,101394.50
2018-11-13T12:10:52.762Z,101391.66
2018-11-13T12:13:21.327Z,101394.42
2018-11-13T12:15:50.522Z,101400.38
2018-11-13T12:18:19.019Z,101402.86
2018-11-13T12:20:47.630Z,101409.55
2018-11-13T12:23:17.131Z,101401.89
2018-11-13T12:25:45.713Z,101410.64
2018-11-13T12:28:14.419Z,101403.95
2018-11-13T12:30:42.942Z,101425.94
2018-11-13T12:33:11.545Z,101423.13
2018-11-13T12:35:40.064Z,101424.41
2018-11-13T12:38:08.644Z,101431.42
2018-11-13T12:40:37.203Z,101431.67
2018-11-13T12:43:06.243Z,101432.84
2018-11-13T12:45:35.008Z,101435.31
2018-11-13T12:48:03.578Z,101438.63
2018-11-13T12:50:37.432Z,101436.45
2018-11-13T12:53:05.985Z,101433.91
2018-11-13T12:55:35.119Z,101441.07
2018-11-13T12:58:03.643Z,101446.78
2018-11-13T13:00:32.204Z,101453.79
2018-11-13T13:03:00.800Z,101450.52
2018-11-13T13:05:29.428Z,101443.90
2018-11-13T13:07:58.124Z,101448.00
2018-11-13T13:10:26.690Z,101447.58
2018-11-13T13:12:55.216Z,101442.32
2018-11-13T13:15:23.766Z,101460.95
2018-11-13T13:17:52.523Z,101447.44
2018-11-13T13:20:22.663Z,101449.57
2018-11-13T13:22:51.627Z,101463.05
2018-11-13T13:25:21.383Z,101461.41
2018-11-13T13:27:50.184Z,101461.97
2018-11-13T13:30:21.191Z,101450.80
2018-11-13T13:32:50.063Z,101466.27
2018-11-13T13:35:56.070Z,101471.48
2018-11-13T13:38:24.666Z,101472.11
2018-11-13T13:40:54.611Z,101471.67
2018-11-13T13:43:24.028Z,101480.66
2018-11-13T13:45:52.668Z,101486.22
2018-11-13T13:48:21.589Z,101488.40
2018-11-13T13:50:50.306Z,101489.16
2018-11-13T13:53:19.609Z,101497.84
2018-11-13T13:55:48.666Z,101494.48
2018-11-13T13:58:17.709Z,101499.81
2018-11-13T14:00:46.405Z,101507.81
2018-11-13T14:03:15.360Z,101503.23
2018-11-13T14:05:44.640Z,101509.86
2018-11-13T14:08:14.011Z,101513.69
2018-11-13T14:10:42.816Z,101513.47
2018-11-13T14:13:11.714Z,101526.05
2018-11-13T14:15:40.665Z,101519.42
2018-11-13T14:18:09.286Z,101523.33
2018-11-13T14:20:37.915Z,101522.50
2018-11-13T14:23:06.765Z,101533.44
2018-11-13T14:25:35.355Z,101537.58
2018-11-13T14:28:03.969Z,101547.50
2018-11-13T14:30:34.906Z,101547.45
2018-11-13T14:33:08.839Z,101551.41
2018-11-13T14:35:37.440Z,101553.70
2018-11-13T14:38:07.288Z,101553.39
2018-11-13T14:40:37.355Z,101552.91
2018-11-13T14:43:06.439Z,101554.77
2018-11-13T14:45:35.087Z,101572.46
2018-11-13T14:48:04.301Z,101574.92
2018-11-13T14:50:34.211Z,101575.77
2018-11-13T14:53:02.924Z,101574.62
2018-11-13T14:55:33.769Z,101583.91
2018-11-13T14:58:04.352Z,101589.09
2018-11-13T15:00:34.135Z,101597.72
2018-11-13T15:03:03.715Z,101604.64
2018-11-13T15:05:33.188Z,101614.71
2018-11-13T15:08:05.107Z,101608.06
2018-11-13T15:10:41.479Z,101623.16
2018-11-13T15:13:10.568Z,101625.84
2018-11-13T15:15:39.161Z,101625.52
2018-11-13T15:18:08.798Z,101636.92
2018-11-13T15:20:37.738Z,101638.91
2018-11-13T15:23:07.419Z,101636.27
2018-11-13T15:25:35.994Z,101629.98
2018-11-13T15:28:04.929Z,101641.87
2018-11-13T15:30:34.624Z,101643.70
2018-11-13T15:33:05.119Z,101643.53
2018-11-13T15:35:40.314Z,101645.34
2018-11-13T15:38:09.130Z,101650.30
2018-11-13T15:40:37.692Z,101661.05
2018-11-13T15:43:06.648Z,101665.33
2018-11-13T15:45:35.298Z,101660.70
2018-11-13T15:48:05.784Z,101656.89
2018-11-13T15:50:35.220Z,101665.14
2018-11-13T15:53:03.756Z,101662.84
2018-11-13T15:55:32.345Z,101668.45
2018-11-13T15:58:01.780Z,101674.37
2018-11-13T16:00:31.939Z,101677.53
2018-11-13T16:03:02.081Z,101688.06
2018-11-13T16:05:35.103Z,101688.86
2018-11-13T16:08:05.434Z,101700.56
2018-11-13T16:10:33.987Z,101700.21
2018-11-13T16:13:02.725Z,101701.67
2018-11-13T16:15:32.057Z,101704.60
2018-11-13T16:18:01.842Z,101709.83
2018-11-13T16:20:30.391Z,101716.75
2018-11-13T16:22:58.948Z,101726.95
2018-11-13T16:25:28.077Z,101723.34
2018-11-13T16:27:56.588Z,101731.11
2018-11-13T16:30:26.567Z,101723.34
2018-11-13T16:32:55.256Z,101728.17
2018-11-13T16:35:25.530Z,101731.00
2018-11-13T16:37:55.157Z,101733.78
2018-11-13T16:40:26.408Z,101739.02
2018-11-13T16:42:54.970Z,101735.77
2018-11-13T16:45:24.962Z,101740.80
2018-11-13T16:47:53.972Z,101744.75
2018-11-13T16:50:25.543Z,101747.75
2018-11-13T16:52:54.141Z,101757.79
2018-11-13T16:55:28.836Z,101750.16
2018-11-13T16:57:58.202Z,101757.39
2018-11-13T17:00:26.856Z,101754.59
2018-11-13T17:02:55.594Z,101758.11
2018-11-13T17:05:25.765Z,101753.80
2018-11-13T17:07:54.214Z,101762.31
2018-11-13T17:10:24.345Z,101765.50
2018-11-13T17:12:53.307Z,101766.03
2018-11-13T17:15:22.978Z,101766.91
2018-11-13T17:17:52.789Z,101767.48
2018-11-13T17:20:22.062Z,101772.16
2018-11-13T17:22:51.020Z,101775.80
2018-11-13T17:25:20.974Z,101779.48
2018-11-13T17:27:50.760Z,101782.30
2018-11-13T17:30:22.971Z,101786.03
2018-11-13T17:32:52.026Z,101788.84
2018-11-13T17:35:23.136Z,101790.86
2018-11-13T17:37:52.544Z,101802.73
2018-11-13T17:40:26.427Z,101801.66
2018-11-13T17:42:56.294Z,101798.66
2018-11-13T17:45:26.395Z,101808.38
2018-11-13T17:47:54.952Z,101814.77
2018-11-13T17:50:26.129Z,101814.67
2018-11-13T17:52:54.762Z,101821.28
2018-11-13T17:55:23.860Z,101821.74
2018-11-13T17:57:54.067Z,101821.95
2018-11-13T18:00:30.141Z,101824.05
2018-11-13T18:02:58.758Z,101822.41
2018-11-13T18:05:27.815Z,101827.00
2018-11-13T18:07:57.698Z,101837.42
2018-11-13T18:10:26.895Z,101836.73
2018-11-13T18:12:55.538Z,101837.36
2018-11-13T18:15:25.296Z,101845.17
2018-11-13T18:17:54.024Z,101844.33
2018-11-13T18:20:24.082Z,101848.86
2018-11-13T18:22:52.657Z,101850.02
2018-11-13T18:25:21.472Z,101852.20
2018-11-13T18:27:51.945Z,101852.69
2018-11-13T18:30:25.919Z,101861.48
2018-11-13T18:32:55.312Z,101856.72
2018-11-13T18:35:25.242Z,101857.25
2018-11-13T18:37:54.655Z,101868.22
2018-11-13T18:40:23.810Z,101867.16
2018-11-13T18:42:53.118Z,101870.45
2018-11-13T18:45:24.282Z,101870.13
2018-11-13T18:47:52.885Z,101868.58
2018-11-13T18:50:27.746Z,101865.89
2018-11-13T18:52:56.482Z,101879.28
2018-11-13T18:55:25.283Z,101879.41
2018-11-13T18:57:53.849Z,101877.87
2018-11-13T19:00:25.327Z,101875.59
2018-11-13T19:02:54.946Z,101877.68
2018-11-13T19:05:25.151Z,101866.36
2018-11-13T19:07:54.392Z,101878.89
2018-11-13T19:10:29.741Z,101882.87
2018-11-13T19:12:59.312Z,101892.60
2018-11-13T19:15:29.426Z,101897.58
2018-11-13T19:17:58.005Z,101895.75
2018-11-13T19:20:27.212Z,101900.24
2018-11-13T19:22:55.672Z,101902.40
2018-11-13T19:25:25.702Z,101907.77
2018-11-13T19:27:55.141Z,101907.97
2018-11-13T19:30:23.941Z,101909.08
2018-11-13T19:32:52.686Z,101917.33
2018-11-13T19:35:21.820Z,101916.83
2018-11-13T19:37:50.475Z,101915.11
2018-11-13T19:40:20.538Z,101918.34
2018-11-13T19:42:49.979Z,101926.34
2018-11-13T19:45:19.787Z,101925.78
2018-11-13T19:47:48.453Z,101932.80
2018-11-13T19:50:18.959Z,101933.05
2018-11-13T19:52:47.675Z,101929.11
2018-11-13T19:55:17.018Z,101936.48
2018-11-13T19:57:46.456Z,101943.34
2018-11-13T20:00:23.502Z,101935.34
2018-11-13T20:02:53.030Z,101933.55
2018-11-13T20:05:21.871Z,101935.80
2018-11-13T20:07:50.482Z,101942.87
2018-11-13T20:10:20.967Z,101946.28
2018-11-13T20:12:50.606Z,101942.53
2018-11-13T20:15:19.819Z,101947.03
2018-11-13T20:17:48.482Z,101946.33
2018-11-13T20:20:19.177Z,101955.42
2018-11-13T20:22:48.611Z,101955.55
2018-11-13T20:25:18.782Z,101953.89
2018-11-13T20:27:47.351Z,101957.77
2018-11-13T20:30:21.020Z,101958.47
2018-11-13T20:32:49.833Z,101958.50
2018-11-13T20:35:18.635Z,101962.34
2018-11-13T20:37:48.121Z,101962.67
2018-11-13T20:40:18.133Z,101960.80
2018-11-13T20:42:47.943Z,101966.06
2018-11-13T20:45:16.516Z,101966.76
2018-11-13T20:47:45.204Z,101968.13
2018-11-13T20:50:22.898Z,101974.24
2018-11-13T20:52:51.531Z,101968.70
2018-11-13T20:55:20.167Z,101977.20
2018-11-13T20:57:48.670Z,101974.78
2018-11-13T21:00:19.945Z,101981.64
2018-11-13T21:02:48.766Z,101988.69
2018-11-13T21:05:18.267Z,101989.03
2018-11-13T21:07:46.885Z,101986.12
2018-11-13T21:10:20.719Z,101993.58
2018-11-13T21:12:49.822Z,101986.67
2018-11-13T21:15:19.778Z,101990.81
2018-11-13T21:17:48.539Z,101988.36
2018-11-13T21:20:18.229Z,101995.97
2018-11-13T21:22:47.062Z,101995.47
2018-11-13T21:25:17.150Z,102000.72
2018-11-13T21:27:45.770Z,102003.59
2018-11-13T21:30:18.007Z,102015.14
2018-11-13T21:32:47.202Z,102017.71
2018-11-13T21:35:16.194Z,102019.22
2018-11-13T21:37:46.154Z,102019.78
2018-11-13T21:40:15.965Z,102026.73
2018-11-13T21:42:45.734Z,102027.56
2018-11-13T21:45:14.932Z,102021.00
2018-11-13T21:47:44.518Z,102020.52
2018-11-13T21:50:16.634Z,102021.09
2018-11-13T21:52:45.271Z,102018.62
2018-11-13T21:55:15.936Z,102021.76
2018-11-13T21:57:45.226Z,102035.18
2018-11-13T22:00:16.429Z,102034.57
2018-11-13T22:02:46.678Z,102039.26
2018-11-13T22:05:15.801Z,102041.13
2018-11-13T22:07:44.838Z,102044.13
2018-11-13T22:10:13.416Z,102040.00
2018-11-13T22:12:42.759Z,102031.92
2018-11-13T22:15:19.103Z,102034.59
2018-11-13T22:17:47.731Z,102031.59
2018-11-13T22:20:17.231Z,102041.36
2018-11-13T22:22:46.217Z,102042.41
2018-11-13T22:25:17.057Z,102051.01
2018-11-13T22:27:46.886Z,102055.55
2018-11-13T22:30:17.390Z,102052.38
2018-11-13T22:32:46.472Z,102056.40
2018-11-13T22:35:15.510Z,102059.03
2018-11-13T22:37:44.172Z,102058.39
2018-11-13T22:40:22.282Z,102048.82
2018-11-13T22:42:51.073Z,102065.59
2018-11-13T22:45:21.777Z,102060.20
2018-11-13T22:47:50.682Z,102066.17
2018-11-13T22:50:26.933Z,102058.92
2018-11-13T22:52:55.845Z,102068.76
2018-11-13T22:55:24.428Z,102070.85
2018-11-13T22:57:54.632Z,102068.90
2018-11-13T23:00:25.820Z,102064.86
2018-11-13T23:02:55.508Z,102073.20
2018-11-13T23:05:24.096Z,102066.06
2018-11-13T23:07:52.634Z,102065.66
2018-11-13T23:10:21.244Z,102076.56
2018-11-13T23:12:49.803Z,102071.27
2018-11-13T23:15:20.421Z,102069.61
2018-11-13T23:17:48.962Z,102075.12
2018-11-13T23:20:18.933Z,102077.27
2018-11-13T23:22:48.066Z,102075.98
2018-11-13T23:25:17.858Z,102072.41
2018-11-13T23:27:47.432Z,102068.23
2018-11-13T23:30:18.824Z,102062.70
2018-11-13T23:32:47.480Z,102067.80
2018-11-13T23:35:17.182Z,102064.33
2018-11-13T23:37:46.995Z,102060.65
2018-11-13T23:40:17.431Z,102056.73
2018-11-13T23:42:46.543Z,102054.33
2018-11-13T23:45:16.143Z,102059.08
2018-11-13T23:47:45.225Z,102056.47
2018-11-13T23:50:14.022Z,102056.61
2018-11-13T23:52:43.261Z,102055.42
2018-11-13T23:55:12.834Z,102057.27
2018-11-13T23:57:42.155Z,102062.12
